Time;durP1;ratioP1;P1;durP2;ratioP2;P2;SDS_P1;SDS_P2;PMS_P1;PMS_P2;Temp;Humidity;BMP_temperature;BMP_pressure;BME280_temperature;BME280_humidity;BME280_pressure;Samples;Min_cycle;Max_cycle;Signal;HPM_P1;HPM_P2
2022/05/12 00:01:14;;;;;;;3.53;1.10;;;10.60;99.90;;;;;;5017039;28;20118;-88
2022/05/12 00:03:41;;;;;;;3.35;1.35;;;10.60;99.90;;;;;;5016667;28;20047;-87
2022/05/12 00:06:08;;;;;;;4.85;1.25;;;10.60;99.90;;;;;;5000310;28;20041;-88
2022/05/12 00:08:35;;;;;;;5.75;1.50;;;10.60;99.90;;;;;;5013417;28;20072;-87
2022/05/12 00:11:01;;;;;;;7.82;1.67;;;10.60;99.90;;;;;;5047097;28;20057;-86
2022/05/12 00:13:27;;;;;;;4.57;1.10;;;10.50;99.90;;;;;;5012793;28;20048;-88
2022/05/12 00:15:53;;;;;;;8.90;1.30;;;10.50;99.90;;;;;;5034291;28;20124;-86
2022/05/12 00:18:19;;;;;;;6.88;1.10;;;10.50;99.90;;;;;;5035168;28;20502;-87
2022/05/12 00:20:44;;;;;;;3.72;1.30;;;10.50;99.90;;;;;;5032397;28;20048;-86
2022/05/12 00:23:16;;;;;;;6.13;1.20;;;10.50;99.90;;;;;;5016154;28;20056;-87
2022/05/12 00:25:44;;;;;;;2.92;0.90;;;10.50;99.90;;;;;;5033733;28;20490;-86
2022/05/12 00:28:11;;;;;;;3.08;0.80;;;10.50;99.90;;;;;;5015846;28;20075;-87
2022/05/12 00:30:38;;;;;;;5.90;0.95;;;10.40;99.90;;;;;;5014772;28;20049;-87
2022/05/12 00:33:05;;;;;;;3.40;1.00;;;10.30;99.90;;;;;;5014835;28;20048;-87
2022/05/12 00:35:31;;;;;;;4.75;1.00;;;10.20;99.90;;;;;;5000138;28;20430;-87
2022/05/12 00:37:57;;;;;;;4.85;1.10;;;10.20;99.90;;;;;;5017672;28;20044;-88
2022/05/12 00:40:23;;;;;;;7.18;1.63;;;10.10;99.90;;;;;;4999906;28;20501;-87
2022/05/12 00:42:59;;;;;;;7.90;1.27;;;10.10;99.90;;;;;;5015276;28;20052;-87
2022/05/12 00:45:27;;;;;;;3.25;1.10;;;10.10;99.90;;;;;;5033526;28;20493;-87
2022/05/12 00:47:53;;;;;;;10.30;1.30;;;10.10;99.90;;;;;;5021709;28;20053;-87
2022/05/12 00:50:24;;;;;;;4.03;1.10;;;10.00;99.90;;;;;;4999554;28;20041;-86
2022/05/12 00:52:50;;;;;;;3.70;1.10;;;9.90;99.90;;;;;;5017685;28;20075;-86
2022/05/12 00:55:22;;;;;;;3.38;1.20;;;10.20;99.90;;;;;;5003554;28;20045;-87
2022/05/12 00:57:54;;;;;;;2.58;0.88;;;9.90;99.90;;;;;;5019992;28;20056;-85
2022/05/12 01:00:21;;;;;;;3.67;1.10;;;9.90;99.90;;;;;;5051708;28;20044;-84
2022/05/12 01:02:49;;;;;;;3.17;0.82;;;9.80;99.90;;;;;;5013360;28;20057;-84
2022/05/12 01:05:17;;;;;;;6.75;1.30;;;9.90;99.90;;;;;;5017468;28;20079;-85
2022/05/12 01:07:43;;;;;;;7.38;1.20;;;9.80;99.90;;;;;;5014732;28;20045;-84
2022/05/12 01:10:09;;;;;;;3.50;1.20;;;9.70;99.90;;;;;;5017462;28;20049;-84
2022/05/12 01:12:43;;;;;;;4.28;1.15;;;9.70;99.90;;;;;;5015046;28;20479;-86
2022/05/12 01:15:09;;;;;;;4.85;1.02;;;9.60;99.90;;;;;;5034270;28;20049;-85
2022/05/12 01:17:35;;;;;;;3.25;1.42;;;9.60;99.90;;;;;;4998960;28;20052;-84
2022/05/12 01:20:01;;;;;;;5.50;1.20;;;9.50;99.90;;;;;;5001892;28;20041;-85
2022/05/12 01:22:53;;;;;;;6.32;1.10;;;9.50;99.90;;;;;;5022896;28;20500;-83
2022/05/12 01:25:23;;;;;;;4.88;1.33;;;9.40;99.90;;;;;;5034071;28;20511;-84
2022/05/12 01:27:49;;;;;;;6.43;1.17;;;9.40;99.90;;;;;;5035536;28;20052;-84
2022/05/12 01:30:22;;;;;;;5.07;1.20;;;9.40;99.90;;;;;;5000637;28;20049;-84
2022/05/12 01:32:49;;;;;;;4.97;1.50;;;9.30;99.90;;;;;;5018453;28;20060;-84
2022/05/12 01:35:19;;;;;;;3.60;1.17;;;9.30;99.90;;;;;;5003096;28;20561;-85
2022/05/12 01:37:46;;;;;;;6.13;1.98;;;9.20;99.90;;;;;;5020708;28;20038;-85
2022/05/12 01:40:15;;;;;;;3.53;1.33;;;9.40;99.90;;;;;;5042954;28;20140;-85
2022/05/12 01:42:41;;;;;;;2.42;1.40;;;9.10;99.90;;;;;;5040507;28;20115;-85
2022/05/12 01:45:09;;;;;;;8.15;1.67;;;9.10;99.90;;;;;;5003706;28;20044;-86
2022/05/12 01:47:36;;;;;;;5.78;1.83;;;9.00;99.90;;;;;;5018749;28;20056;-86
2022/05/12 01:50:02;;;;;;;6.93;1.63;;;9.00;99.90;;;;;;5006697;28;20045;-85
2022/05/12 01:52:28;;;;;;;8.45;2.00;;;9.00;99.90;;;;;;5042208;28;20037;-86
2022/05/12 01:54:54;;;;;;;3.53;1.73;;;9.00;99.90;;;;;;5003150;28;20052;-86
2022/05/12 01:57:22;;;;;;;9.18;3.53;;;9.00;99.90;;;;;;5035883;28;20136;-85
2022/05/12 01:59:49;;;;;;;5.20;1.63;;;8.90;99.90;;;;;;5024104;28;20040;-85
2022/05/12 02:02:14;;;;;;;5.97;1.70;;;8.80;99.90;;;;;;5015990;28;20504;-84
2022/05/12 02:04:40;;;;;;;4.65;1.90;;;8.90;99.90;;;;;;5033437;28;20049;-85
2022/05/12 02:07:07;;;;;;;3.60;1.73;;;9.00;99.90;;;;;;5016837;28;20061;-85
2022/05/12 02:09:32;;;;;;;6.30;1.52;;;8.80;99.90;;;;;;5027555;28;20042;-85
2022/05/12 02:11:58;;;;;;;7.63;1.80;;;8.80;99.90;;;;;;5016442;28;20099;-85
2022/05/12 02:14:24;;;;;;;5.78;1.80;;;8.80;99.90;;;;;;4987678;28;20045;-85
2022/05/12 02:16:49;;;;;;;4.32;1.95;;;8.70;99.90;;;;;;5020353;28;20056;-86
2022/05/12 02:19:15;;;;;;;6.80;1.90;;;8.80;99.90;;;;;;4999218;28;20055;-85
2022/05/12 02:21:41;;;;;;;6.45;2.13;;;8.70;99.90;;;;;;5022744;28;20095;-86
2022/05/12 02:24:07;;;;;;;3.58;1.88;;;8.70;99.90;;;;;;5004357;28;20037;-86
2022/05/12 02:26:33;;;;;;;4.85;2.15;;;8.70;99.90;;;;;;5033369;28;20065;-85
2022/05/12 02:28:59;;;;;;;8.18;2.33;;;8.70;99.90;;;;;;5033838;28;20052;-85
2022/05/12 02:31:25;;;;;;;7.32;2.45;;;8.70;99.90;;;;;;5035136;28;20049;-85
2022/05/12 02:33:51;;;;;;;6.43;2.05;;;8.70;99.90;;;;;;5012747;28;20054;-85
2022/05/12 02:36:16;;;;;;;5.43;2.25;;;8.90;99.90;;;;;;5037076;28;20085;-85
2022/05/12 02:38:42;;;;;;;3.53;2.25;;;8.70;99.90;;;;;;5003145;28;20495;-84
2022/05/12 02:41:08;;;;;;;7.78;2.58;;;8.70;99.90;;;;;;4999921;28;20044;-85
2022/05/12 02:43:34;;;;;;;4.32;2.28;;;8.60;99.90;;;;;;5014896;28;20042;-84
2022/05/12 02:46:06;;;;;;;4.22;1.88;;;8.60;99.90;;;;;;5001114;28;20136;-86
2022/05/12 02:48:35;;;;;;;4.20;2.05;;;8.60;99.90;;;;;;5016821;28;20049;-85
2022/05/12 02:51:01;;;;;;;7.10;2.50;;;8.60;99.90;;;;;;5059392;28;20495;-84
2022/05/12 02:53:28;;;;;;;10.43;2.58;;;8.50;99.90;;;;;;4999561;28;20754;-85
2022/05/12 02:55:54;;;;;;;5.03;2.30;;;8.70;99.90;;;;;;5020543;28;20041;-84
2022/05/12 02:58:20;;;;;;;9.20;2.28;;;8.70;99.90;;;;;;4999399;28;20057;-86
2022/05/12 03:00:48;;;;;;;9.27;2.22;;;8.50;99.90;;;;;;5033800;28;20050;-85
2022/05/12 03:03:14;;;;;;;5.85;2.33;;;8.50;99.90;;;;;;5000150;28;20048;-84
2022/05/12 03:05:41;;;;;;;8.80;2.40;;;8.40;99.90;;;;;;5035272;28;20061;-86
2022/05/12 03:08:08;;;;;;;9.68;2.40;;;8.40;99.90;;;;;;5018972;28;20045;-86
2022/05/12 03:10:35;;;;;;;7.18;2.58;;;8.40;99.90;;;;;;5017619;28;20499;-85
2022/05/12 03:13:01;;;;;;;7.93;2.35;;;8.30;99.90;;;;;;5015768;28;20042;-85
2022/05/12 03:15:28;;;;;;;6.43;2.47;;;8.50;99.90;;;;;;5002167;28;20482;-85
2022/05/12 03:17:54;;;;;;;9.20;2.60;;;8.30;99.90;;;;;;5001669;28;20041;-85
2022/05/12 03:20:23;;;;;;;5.65;2.40;;;8.30;99.90;;;;;;5015441;28;20099;-85
2022/05/12 03:22:49;;;;;;;7.90;2.60;;;8.60;99.90;;;;;;5033456;28;20195;-85
2022/05/12 03:25:17;;;;;;;10.68;3.70;;;8.30;99.90;;;;;;5016625;28;20052;-84
2022/05/12 03:27:43;;;;;;;7.82;2.88;;;8.30;99.90;;;;;;5003616;28;20132;-86
2022/05/12 03:30:13;;;;;;;9.50;2.92;;;8.30;99.90;;;;;;5017227;28;20044;-85
2022/05/12 03:32:40;;;;;;;7.28;2.80;;;8.30;99.90;;;;;;5017810;28;20045;-84
2022/05/12 03:35:06;;;;;;;4.85;2.70;;;8.30;99.90;;;;;;5035968;28;20053;-86
2022/05/12 03:37:33;;;;;;;8.32;2.80;;;8.20;99.90;;;;;;5014955;28;20163;-84
2022/05/12 03:39:59;;;;;;;8.45;2.88;;;8.30;99.90;;;;;;4999215;28;20080;-84
2022/05/12 03:42:24;;;;;;;7.78;3.00;;;8.30;99.90;;;;;;5014830;28;20060;-85
2022/05/12 03:44:50;;;;;;;14.13;4.30;;;8.20;99.90;;;;;;5029569;28;20054;-85
2022/05/12 03:47:29;;;;;;;7.50;3.22;;;8.20;99.90;;;;;;5031826;28;20126;-84
2022/05/12 03:49:57;;;;;;;11.00;3.33;;;8.20;99.90;;;;;;5013098;28;20076;-84
2022/05/12 03:52:24;;;;;;;9.10;3.45;;;8.20;99.90;;;;;;5015199;28;20033;-84
2022/05/12 03:54:50;;;;;;;11.00;3.75;;;8.30;99.90;;;;;;5017687;28;20249;-85
2022/05/12 03:57:17;;;;;;;11.05;3.67;;;8.20;99.90;;;;;;5030598;28;20045;-86
2022/05/12 03:59:43;;;;;;;13.80;4.53;;;8.30;99.90;;;;;;5031070;28;20498;-86
2022/05/12 04:02:10;;;;;;;11.48;4.50;;;8.40;99.90;;;;;;5033591;28;20049;-85
2022/05/12 04:04:36;;;;;;;13.90;3.83;;;8.30;99.90;;;;;;5032155;28;20120;-85
2022/05/12 04:07:03;;;;;;;10.90;4.55;;;8.30;99.90;;;;;;4996542;28;20398;-84
2022/05/12 04:09:29;;;;;;;8.95;4.20;;;8.30;99.90;;;;;;5013497;28;20076;-84
2022/05/12 04:11:55;;;;;;;12.27;3.45;;;8.30;99.90;;;;;;5028127;28;20053;-85
2022/05/12 04:14:21;;;;;;;8.35;3.85;;;8.40;99.90;;;;;;5018232;28;20049;-85
2022/05/12 04:16:47;;;;;;;10.95;4.45;;;8.30;99.90;;;;;;5002365;28;20047;-85
2022/05/12 04:19:14;;;;;;;7.88;3.50;;;8.30;99.90;;;;;;5056573;28;20049;-85
2022/05/12 04:21:40;;;;;;;10.43;4.63;;;8.40;99.90;;;;;;5016591;28;20065;-85
2022/05/12 04:24:07;;;;;;;10.55;4.38;;;8.40;99.90;;;;;;4999500;28;20064;-86
2022/05/12 04:26:35;;;;;;;9.60;4.18;;;8.50;99.90;;;;;;5014697;28;20049;-84
2022/05/12 04:29:01;;;;;;;11.82;4.80;;;8.80;99.90;;;;;;5060227;28;20854;-84
2022/05/12 04:31:27;;;;;;;9.98;4.35;;;8.60;99.90;;;;;;5030624;28;20049;-86
2022/05/12 04:36:36;;;;;;;13.07;4.63;;;8.70;99.90;;;;;;5025055;28;20148;-85
2022/05/12 04:39:03;;;;;;;10.50;3.92;;;8.80;99.90;;;;;;5024843;28;20140;-85
2022/05/12 04:41:30;;;;;;;13.30;4.55;;;8.60;99.90;;;;;;5028884;28;20053;-85
2022/05/12 04:43:56;;;;;;;13.15;5.07;;;8.70;99.90;;;;;;5029238;28;20399;-86
2022/05/12 04:46:22;;;;;;;11.40;4.55;;;8.70;99.90;;;;;;4997461;28;20061;-89
2022/05/12 04:48:48;;;;;;;20.45;5.60;;;8.70;99.90;;;;;;5027127;28;20048;-85
2022/05/12 04:51:13;;;;;;;15.43;5.35;;;8.80;99.90;;;;;;5018709;28;20049;-85
2022/05/12 04:53:39;;;;;;;15.35;4.82;;;8.80;99.90;;;;;;5031532;28;20312;-85
2022/05/12 04:56:05;;;;;;;12.35;4.65;;;8.90;99.90;;;;;;5019261;28;20254;-86
2022/05/12 04:58:31;;;;;;;13.35;5.65;;;8.80;99.90;;;;;;5028019;28;20053;-86
2022/05/12 05:00:58;;;;;;;11.63;5.07;;;8.90;99.90;;;;;;5004793;28;20064;-88
2022/05/12 05:03:24;;;;;;;12.05;5.00;;;9.20;99.90;;;;;;5019499;28;20050;-88
2022/05/12 05:05:55;;;;;;;16.10;5.00;;;9.10;99.90;;;;;;5002662;28;20099;-88
2022/05/12 05:08:25;;;;;;;13.13;5.60;;;9.20;99.90;;;;;;5021171;28;20111;-87
2022/05/12 05:10:53;;;;;;;17.08;5.65;;;9.20;99.90;;;;;;5042352;28;20045;-86
2022/05/12 05:13:30;;;;;;;15.25;6.38;;;9.30;99.90;;;;;;5032748;28;20406;-87
2022/05/12 05:16:03;;;;;;;10.32;5.70;;;9.20;99.90;;;;;;5048001;28;20041;-86
2022/05/12 05:18:31;;;;;;;12.93;6.00;;;9.40;99.90;;;;;;4999925;28;20041;-87
2022/05/12 05:21:00;;;;;;;14.27;5.85;;;9.50;99.90;;;;;;5048839;28;20038;-87
2022/05/12 05:23:25;;;;;;;17.23;5.63;;;9.50;99.90;;;;;;5023890;28;20068;-87
2022/05/12 05:25:54;;;;;;;13.32;6.35;;;9.60;99.90;;;;;;4993556;28;20041;-87
2022/05/12 05:28:20;;;;;;;17.00;6.10;;;9.60;99.90;;;;;;4998284;28;20056;-87
2022/05/12 05:30:46;;;;;;;12.60;6.82;;;9.70;99.90;;;;;;5025857;28;20044;-88
2022/05/12 05:33:12;;;;;;;14.88;6.57;;;9.80;99.90;;;;;;5036404;28;20049;-89
2022/05/12 05:35:37;;;;;;;10.43;5.82;;;9.80;99.90;;;;;;5018965;28;20111;-88
2022/05/12 05:38:04;;;;;;;14.02;6.00;;;9.90;99.90;;;;;;4999400;28;20041;-88
2022/05/12 05:40:30;;;;;;;14.43;6.45;;;10.10;99.90;;;;;;5035419;28;20147;-88
2022/05/12 05:42:57;;;;;;;14.68;6.03;;;10.20;99.90;;;;;;5049908;28;20450;-87
2022/05/12 05:45:26;;;;;;;17.75;6.80;;;10.20;99.90;;;;;;5022811;28;20060;-88
2022/05/12 05:48:02;;;;;;;13.48;6.72;;;10.20;99.90;;;;;;5016867;28;20108;-87
2022/05/12 05:53:30;;;;;;;16.48;7.30;;;10.40;99.90;;;;;;5011345;28;20053;-87
2022/05/12 05:55:59;;;;;;;14.80;6.40;;;10.70;99.90;;;;;;5030776;28;20053;-85
2022/05/12 05:58:26;;;;;;;13.73;5.93;;;10.70;99.90;;;;;;5011246;28;20053;-86
2022/05/12 06:00:54;;;;;;;15.73;6.03;;;10.90;99.90;;;;;;4993660;28;20099;-86
2022/05/12 06:03:20;;;;;;;14.43;6.55;;;11.00;99.90;;;;;;5032182;28;20350;-85
2022/05/12 06:05:49;;;;;;;14.07;5.80;;;11.20;99.90;;;;;;5047868;28;20064;-87
2022/05/12 06:08:17;;;;;;;17.38;6.72;;;11.30;99.90;;;;;;5032127;28;20053;-85
2022/05/12 06:10:44;;;;;;;10.88;6.43;;;11.40;99.90;;;;;;5031045;28;20045;-85
2022/05/12 06:13:11;;;;;;;13.40;5.90;;;11.60;99.90;;;;;;5031462;28;20045;-85
2022/05/12 06:15:38;;;;;;;9.50;5.43;;;11.80;99.90;;;;;;5031315;28;20494;-86
2022/05/12 06:18:16;;;;;;;10.50;5.80;;;12.00;99.90;;;;;;5015136;28;20056;-85
2022/05/12 06:20:44;;;;;;;10.10;5.40;;;12.20;99.90;;;;;;5030734;28;20120;-86
2022/05/12 06:23:12;;;;;;;16.70;5.60;;;12.40;99.90;;;;;;5031632;28;20065;-85
2022/05/12 06:25:38;;;;;;;13.40;5.65;;;12.50;99.90;;;;;;5014892;28;20479;-85
2022/05/12 06:28:05;;;;;;;9.63;5.32;;;12.50;99.90;;;;;;5014677;28;20494;-85
2022/05/12 06:30:31;;;;;;;12.38;5.47;;;12.60;99.90;;;;;;5014453;28;20077;-87
2022/05/12 06:32:57;;;;;;;11.70;5.30;;;12.80;99.90;;;;;;5014804;28;20057;-84
2022/05/12 06:35:24;;;;;;;12.32;4.82;;;12.80;99.90;;;;;;5014873;28;20107;-85
2022/05/12 06:37:50;;;;;;;11.70;5.60;;;13.00;99.90;;;;;;5030785;28;20049;-86
2022/05/12 06:40:17;;;;;;;11.88;5.07;;;13.20;99.90;;;;;;5014471;28;20552;-85
2022/05/12 06:42:43;;;;;;;12.48;5.13;;;13.20;99.90;;;;;;5014360;28;20057;-85
2022/05/12 06:45:11;;;;;;;10.35;5.22;;;13.40;99.90;;;;;;5031110;28;20100;-85
2022/05/12 06:47:37;;;;;;;9.05;4.55;;;13.50;99.90;;;;;;5014003;28;20057;-85
2022/05/12 06:50:03;;;;;;;12.05;4.93;;;13.50;99.90;;;;;;5014730;28;20060;-85
2022/05/12 06:52:30;;;;;;;7.32;4.18;;;13.50;99.90;;;;;;5031116;28;20123;-85
2022/05/12 06:54:56;;;;;;;10.55;4.05;;;13.60;99.90;;;;;;5014262;28;20144;-85
2022/05/12 06:57:27;;;;;;;11.30;4.60;;;13.70;99.90;;;;;;5031204;28;20140;-85
2022/05/12 06:59:55;;;;;;;11.57;4.40;;;13.70;99.90;;;;;;4998050;28;20124;-85
2022/05/12 07:02:22;;;;;;;9.63;4.20;;;13.90;99.90;;;;;;5014290;28;20076;-85
2022/05/12 07:04:49;;;;;;;12.75;4.60;;;14.10;99.90;;;;;;5030534;28;20124;-85
2022/05/12 07:07:14;;;;;;;8.07;4.07;;;14.20;99.90;;;;;;5030810;28;20494;-84
2022/05/12 07:09:40;;;;;;;9.63;4.07;;;14.30;99.90;;;;;;5013813;28;20084;-84
2022/05/12 07:12:06;;;;;;;10.57;4.32;;;14.50;99.90;;;;;;5014282;28;20080;-86
2022/05/12 07:14:32;;;;;;;8.73;3.60;;;14.60;99.90;;;;;;5014282;28;20057;-85
2022/05/12 07:16:58;;;;;;;9.70;3.33;;;14.80;99.90;;;;;;5030298;28;20047;-84
2022/05/12 07:19:24;;;;;;;5.63;2.42;;;15.00;99.90;;;;;;5014105;28;20046;-84
2022/05/12 07:27:38;;;;;;;8.57;2.28;;;15.40;99.90;;;;;;4973326;28;20051;-85
2022/05/12 07:30:06;;;;;;;8.57;2.35;;;15.60;99.90;;;;;;4973777;28;20038;-84
2022/05/12 07:32:32;;;;;;;7.57;2.03;;;15.90;99.90;;;;;;4999098;28;20053;-84
2022/05/12 07:34:57;;;;;;;7.45;1.60;;;16.00;99.90;;;;;;5013207;28;20713;-85
2022/05/12 07:37:24;;;;;;;8.15;2.05;;;16.10;99.90;;;;;;5030277;28;20132;-85
2022/05/12 07:39:50;;;;;;;7.93;1.77;;;16.20;99.90;;;;;;5012961;28;20242;-85
2022/05/12 07:42:15;;;;;;;5.43;1.90;;;16.30;99.90;;;;;;5013760;28;20132;-84
2022/05/12 07:44:41;;;;;;;8.13;2.10;;;16.40;99.90;;;;;;5013263;28;20053;-85
2022/05/12 07:47:13;;;;;;;3.55;1.45;;;16.50;99.90;;;;;;5030130;28;20060;-86
2022/05/12 07:49:40;;;;;;;5.97;1.45;;;16.70;96.90;;;;;;5013179;28;20049;-83
2022/05/12 07:52:09;;;;;;;7.60;1.95;;;16.70;99.90;;;;;;5029889;28;20144;-84
2022/05/12 07:54:35;;;;;;;6.95;1.60;;;16.90;99.90;;;;;;5013238;28;20506;-85
2022/05/12 07:57:02;;;;;;;4.93;1.50;;;17.00;99.80;;;;;;5013153;28;20064;-85
2022/05/12 07:59:29;;;;;;;4.22;1.40;;;16.80;97.20;;;;;;5029804;28;20511;-84
2022/05/12 08:01:56;;;;;;;8.35;2.03;;;16.50;94.30;;;;;;5012978;28;20092;-84
2022/05/12 08:04:22;;;;;;;6.32;1.30;;;16.30;94.00;;;;;;5013313;28;20056;-85
2022/05/12 08:06:48;;;;;;;4.25;1.25;;;16.20;95.60;;;;;;5028834;28;20053;-85
2022/05/12 08:09:14;;;;;;;4.15;1.23;;;16.20;94.70;;;;;;5013446;28;20045;-82
2022/05/12 08:11:41;;;;;;;4.93;1.50;;;16.30;93.80;;;;;;5012697;28;20111;-85
2022/05/12 08:14:07;;;;;;;7.13;1.58;;;16.30;92.90;;;;;;5013292;28;20076;-85
2022/05/12 08:16:33;;;;;;;6.18;1.60;;;16.30;93.10;;;;;;5013219;28;20049;-85
2022/05/12 08:18:59;;;;;;;4.25;1.60;;;16.40;92.90;;;;;;5029159;28;20295;-84
2022/05/12 08:21:25;;;;;;;7.68;1.30;;;16.50;92.50;;;;;;5012966;28;20049;-83
2022/05/12 08:23:52;;;;;;;6.57;1.23;;;16.80;92.70;;;;;;5028615;28;20111;-85
2022/05/12 08:26:18;;;;;;;5.47;1.30;;;17.10;90.90;;;;;;5013126;28;20553;-84
2022/05/12 08:28:44;;;;;;;3.05;1.52;;;17.40;87.30;;;;;;5012572;28;20045;-85
2022/05/12 08:31:10;;;;;;;7.57;1.65;;;18.30;82.90;;;;;;5013030;28;20477;-83
2022/05/12 08:33:37;;;;;;;4.55;1.30;;;19.20;78.30;;;;;;5012999;28;20044;-82
2022/05/12 08:36:03;;;;;;;5.68;1.45;;;20.10;72.40;;;;;;5028581;28;20384;-83
2022/05/12 08:38:29;;;;;;;6.65;1.40;;;20.30;69.40;;;;;;5029152;28;20056;-82
2022/05/12 08:40:57;;;;;;;2.50;1.05;;;20.30;70.50;;;;;;5028561;28;20411;-82
2022/05/12 08:43:31;;;;;;;3.17;1.10;;;21.00;65.00;;;;;;5029054;28;20048;-82
2022/05/12 08:46:06;;;;;;;4.28;1.27;;;20.60;62.10;;;;;;5012628;28;20060;-82
2022/05/12 08:48:31;;;;;;;6.25;1.25;;;19.80;63.90;;;;;;5012779;28;20045;-84
2022/05/12 08:50:57;;;;;;;4.78;1.38;;;19.50;65.40;;;;;;5012155;28;20041;-85
2022/05/12 08:53:27;;;;;;;5.88;1.38;;;20.20;64.60;;;;;;5012707;28;20068;-83
2022/05/12 08:55:56;;;;;;;3.33;1.00;;;20.90;62.70;;;;;;5028587;28;20501;-82
2022/05/12 08:58:25;;;;;;;5.75;1.30;;;21.00;60.20;;;;;;5029219;28;20050;-84
2022/05/12 09:01:03;;;;;;;6.03;1.40;;;21.30;59.40;;;;;;5011747;28;20041;-84
2022/05/12 09:03:51;;;;;;;5.15;1.98;;;21.60;55.00;;;;;;5012596;28;20486;-85
2022/05/12 09:06:27;;;;;;;4.07;1.20;;;21.00;58.20;;;;;;5012646;28;20099;-84
2022/05/12 09:09:03;;;;;;;3.42;1.10;;;21.40;56.90;;;;;;5011743;28;20488;-85
2022/05/12 09:12:04;;;;;;;6.15;1.25;;;22.00;56.30;;;;;;5028993;28;20356;-84
2022/05/12 09:14:39;;;;;;;5.40;1.52;;;21.70;53.10;;;;;;5011275;28;20053;-85
2022/05/12 09:17:04;;;;;;;9.07;2.17;;;20.30;56.80;;;;;;5012056;28;20057;-84
2022/05/12 09:19:30;;;;;;;4.50;1.33;;;19.80;61.10;;;;;;5028806;28;20053;-84
2022/05/12 09:21:56;;;;;;;4.15;1.63;;;19.50;60.30;;;;;;5028215;28;20499;-83
2022/05/12 09:24:22;;;;;;;5.15;1.38;;;20.20;58.30;;;;;;5012478;28;20103;-84
2022/05/12 09:26:51;;;;;;;4.07;1.30;;;21.30;57.00;;;;;;5011466;28;20406;-85
2022/05/12 09:29:30;;;;;;;7.40;2.25;;;21.80;53.40;;;;;;5012454;28;20502;-84
2022/05/12 09:32:02;;;;;;;5.15;1.30;;;21.20;52.60;;;;;;5012083;28;20053;-83
2022/05/12 09:34:36;;;;;;;8.43;1.20;;;21.20;52.30;;;;;;5028760;28;20099;-85
2022/05/12 09:37:18;;;;;;;7.60;1.20;;;21.20;54.30;;;;;;5011869;28;20057;-85
2022/05/12 09:39:56;;;;;;;4.50;1.20;;;22.00;50.90;;;;;;5011822;28;20064;-84
2022/05/12 09:42:27;;;;;;;5.18;1.35;;;22.40;51.50;;;;;;5011952;28;20132;-84
2022/05/12 09:44:58;;;;;;;6.40;1.23;;;22.90;50.70;;;;;;5027866;28;20045;-84
2022/05/12 09:47:26;;;;;;;5.10;1.40;;;22.80;49.00;;;;;;5014313;28;20091;-84
2022/05/12 09:50:24;;;;;;;4.97;2.28;;;22.90;48.10;;;;;;5031833;28;20162;-84
2022/05/12 09:53:01;;;;;;;5.15;1.45;;;23.70;46.00;;;;;;5015099;28;20053;-84
2022/05/12 09:55:39;;;;;;;4.50;1.13;;;24.20;44.90;;;;;;5032115;28;20041;-84
2022/05/12 09:58:26;;;;;;;3.55;1.23;;;23.50;42.80;;;;;;5015364;28;20132;-84
2022/05/12 10:01:11;;;;;;;4.82;0.90;;;22.80;44.40;;;;;;5015082;28;20052;-84
2022/05/12 10:09:27;;;;;;;6.53;1.30;;;22.90;42.70;;;;;;5031949;28;20103;-84
2022/05/12 10:12:02;;;;;;;4.82;1.05;;;22.50;43.80;;;;;;5014756;28;20052;-86
2022/05/12 10:14:51;;;;;;;5.85;1.13;;;22.80;43.40;;;;;;5015791;28;20530;-84
2022/05/12 10:17:37;;;;;;;5.13;0.90;;;22.90;42.00;;;;;;5015536;28;20056;-84
2022/05/12 10:20:09;;;;;;;4.20;1.27;;;22.40;45.00;;;;;;5014637;28;20426;-84
2022/05/12 10:22:43;;;;;;;3.35;1.17;;;23.30;44.10;;;;;;5015071;28;20570;-83
2022/05/12 10:25:24;;;;;;;4.82;1.15;;;23.80;40.90;;;;;;5014824;28;20111;-84
2022/05/12 10:28:02;;;;;;;5.68;1.30;;;24.30;39.80;;;;;;5014807;28;20057;-86
2022/05/12 10:30:47;;;;;;;3.78;1.20;;;23.20;41.60;;;;;;5015104;28;20049;-84
2022/05/12 10:33:30;;;;;;;6.00;1.20;;;22.30;44.30;;;;;;5015037;28;20060;-84
2022/05/12 10:36:18;;;;;;;4.10;1.10;;;22.30;45.00;;;;;;5031379;28;20065;-84
2022/05/12 10:39:04;;;;;;;4.20;1.02;;;22.30;43.80;;;;;;5014774;28;20140;-84
2022/05/12 10:41:36;;;;;;;2.05;0.70;;;23.40;41.80;;;;;;5014935;28;20057;-84
2022/05/12 10:44:21;;;;;;;4.45;1.23;;;24.10;39.50;;;;;;5031034;28;20053;-84
2022/05/12 10:47:01;;;;;;;4.00;1.55;;;23.30;39.00;;;;;;5014692;28;20052;-84
2022/05/12 10:49:48;;;;;;;4.35;1.00;;;23.60;38.30;;;;;;5014747;28;20510;-84
2022/05/12 10:52:43;;;;;;;4.35;1.20;;;24.20;37.10;;;;;;5014636;28;20057;-84
2022/05/12 10:55:54;;;;;;;6.18;0.90;;;24.70;37.80;;;;;;5014068;28;20064;-84
2022/05/12 10:58:39;;;;;;;4.57;0.95;;;25.30;35.10;;;;;;5029910;28;20056;-84
2022/05/12 11:01:11;;;;;;;4.65;0.90;;;26.20;34.80;;;;;;5030378;28;20093;-85
2022/05/12 11:03:59;;;;;;;3.97;0.82;;;26.00;34.50;;;;;;5031098;28;20087;-85
2022/05/12 11:06:30;;;;;;;4.18;0.90;;;26.50;33.20;;;;;;5014320;28;20049;-84
2022/05/12 11:09:09;;;;;;;5.63;1.02;;;26.40;33.60;;;;;;5013885;28;20051;-85
2022/05/12 11:11:45;;;;;;;3.67;0.70;;;26.50;33.10;;;;;;5014205;28;20050;-85
2022/05/12 11:14:31;;;;;;;3.65;0.90;;;25.50;33.90;;;;;;5013593;28;20136;-82
2022/05/12 11:17:08;;;;;;;3.83;0.80;;;23.50;34.90;;;;;;5013761;28;20625;-85
2022/05/12 11:19:36;;;;;;;2.65;0.90;;;22.70;37.90;;;;;;5014189;28;20045;-83
2022/05/12 11:22:26;;;;;;;4.20;1.10;;;23.40;38.30;;;;;;5013702;28;20095;-84
2022/05/12 11:25:01;;;;;;;2.17;0.80;;;24.40;35.40;;;;;;5013865;28;20056;-84
2022/05/12 11:29:41;;;;;;;3.95;0.75;;;25.40;35.00;;;;;;5030429;28;20499;-84
2022/05/12 11:30:45;;;;;;;3.42;0.73;;;24.80;32.80;;;;;;5030259;28;20053;-84
2022/05/12 11:33:25;;;;;;;4.68;0.98;;;24.20;35.80;;;;;;5029752;28;20505;-84
2022/05/12 11:35:54;;;;;;;4.53;1.05;;;25.10;34.90;;;;;;5013659;28;20505;-86
2022/05/12 11:38:39;;;;;;;4.95;0.85;;;26.30;33.60;;;;;;5013613;28;20049;-84
2022/05/12 11:41:20;;;;;;;4.70;1.10;;;25.80;31.20;;;;;;5013013;28;20704;-84
2022/05/12 11:47:17;;;;;;;3.33;0.90;;;25.30;31.80;;;;;;5030264;28;20045;-84
2022/05/12 11:49:43;;;;;;;4.05;0.70;;;23.70;33.50;;;;;;5013679;28;20045;-84
2022/05/12 11:52:28;;;;;;;2.22;0.70;;;23.50;36.30;;;;;;5013283;28;20513;-86
2022/05/12 11:55:03;;;;;;;3.50;1.02;;;24.00;36.10;;;;;;5030075;28;20407;-84
2022/05/12 11:57:32;;;;;;;;;;;25.30;35.20;;;;;;5013997;28;20136;-85
2022/05/12 12:00:00;;;;;;;4.20;1.35;;;26.40;33.50;;;;;;5029345;28;20358;-86
2022/05/12 12:02:29;;;;;;;3.00;0.77;;;27.30;32.10;;;;;;5013114;28;20080;-82
2022/05/12 12:04:59;;;;;;;4.35;0.70;;;25.90;30.00;;;;;;5012866;28;20507;-82
2022/05/12 12:07:30;;;;;;;2.83;0.80;;;23.90;32.00;;;;;;5029612;28;20581;-81
2022/05/12 12:10:03;;;;;;;4.53;0.80;;;23.00;33.90;;;;;;5012814;28;20434;-84
2022/05/12 12:12:45;;;;;;;2.35;0.70;;;22.90;36.00;;;;;;5012863;28;20045;-84
2022/05/12 12:15:16;;;;;;;5.53;0.98;;;23.70;35.20;;;;;;5012541;28;20056;-82
2022/05/12 12:17:44;;;;;;;4.15;1.00;;;24.60;34.50;;;;;;5013363;28;20490;-83
2022/05/12 12:20:28;;;;;;;4.22;0.80;;;25.60;33.10;;;;;;5028853;28;20106;-83
2022/05/12 12:22:55;;;;;;;2.92;0.80;;;26.10;31.10;;;;;;5013008;28;20049;-82
2022/05/12 12:25:29;;;;;;;3.63;1.00;;;25.70;31.70;;;;;;5012646;28;20513;-82
2022/05/12 12:27:58;;;;;;;3.58;0.73;;;24.40;32.30;;;;;;5012975;28;20057;-82
2022/05/12 12:30:29;;;;;;;3.33;0.70;;;24.00;32.90;;;;;;5029080;28;20107;-83
2022/05/12 12:33:14;;;;;;;5.43;1.63;;;24.80;32.30;;;;;;5029440;28;20053;-83
2022/05/12 12:36:01;;;;;;;4.90;1.10;;;25.70;32.20;;;;;;5012834;28;20049;-83
2022/05/12 12:38:48;;;;;;;3.53;0.90;;;25.80;31.20;;;;;;5028972;28;20486;-83
2022/05/12 12:41:19;;;;;;;4.75;1.25;;;25.70;32.00;;;;;;5028512;28;20509;-82
2022/05/12 12:44:09;;;;;;;3.67;0.77;;;26.30;30.80;;;;;;5012851;28;20068;-82
2022/05/12 12:46:37;;;;;;;2.42;0.90;;;24.90;30.50;;;;;;5026260;28;20135;-83
2022/05/12 12:49:19;;;;;;;3.30;0.75;;;24.60;32.70;;;;;;5028972;28;20064;-86
2022/05/12 12:51:52;;;;;;;3.28;1.33;;;25.90;31.30;;;;;;5012631;28;20060;-83
2022/05/12 12:57:16;;;;;;;8.65;1.20;;;24.50;31.20;;;;;;5028731;28;20053;-83
2022/05/12 13:00:01;;;;;;;4.60;1.35;;;23.20;33.50;;;;;;5012658;28;20041;-83
2022/05/12 13:02:40;;;;;;;3.35;0.70;;;23.10;34.70;;;;;;5012114;28;20188;-82
2022/05/12 13:05:13;;;;;;;3.25;0.70;;;23.90;33.50;;;;;;5028705;28;20764;-84
2022/05/12 13:07:41;;;;;;;4.82;0.88;;;24.10;32.40;;;;;;5012590;28;20124;-83
2022/05/12 13:10:16;;;;;;;2.53;1.08;;;24.10;32.40;;;;;;5028412;28;20068;-83
2022/05/12 13:13:10;;;;;;;4.55;0.90;;;23.20;33.10;;;;;;5028703;28;20053;-85
2022/05/12 13:15:40;;;;;;;3.00;0.90;;;22.70;35.30;;;;;;5028558;28;20490;-84
2022/05/12 13:18:09;;;;;;;5.93;1.35;;;23.00;35.70;;;;;;5028704;28;20054;-86
2022/05/12 13:20:43;;;;;;;3.90;0.98;;;24.10;34.30;;;;;;5028699;28;20529;-84
2022/05/12 13:23:31;;;;;;;3.35;0.80;;;25.10;32.50;;;;;;5015479;28;20231;-85
2022/05/12 13:26:02;;;;;;;3.58;0.90;;;25.30;30.80;;;;;;5032257;28;20065;-85
2022/05/12 13:28:30;;;;;;;2.45;0.90;;;23.60;32.20;;;;;;5015967;28;20049;-83